sensor_id;sensor_type;location;lat;lon;timestamp;P1;durP1;ratioP1;P2;durP2;ratioP2
69369;SDS011;56530;42.640;23.372;2023-06-14T00:01:01;10.87;;;9.77;;
69369;SDS011;56530;42.640;23.372;2023-06-14T00:03:28;9.57;;;8.63;;
69369;SDS011;56530;42.640;23.372;2023-06-14T00:05:53;10.02;;;9.13;;
69369;SDS011;56530;42.640;23.372;2023-06-14T00:08:19;9.97;;;9.07;;
69369;SDS011;56530;42.640;23.372;2023-06-14T00:10:46;10.95;;;8.88;;
69369;SDS011;56530;42.640;23.372;2023-06-14T00:13:11;9.48;;;8.55;;
69369;SDS011;56530;42.640;23.372;2023-06-14T00:15:37;9.37;;;8.40;;
69369;SDS011;56530;42.640;23.372;2023-06-14T00:18:03;9.33;;;7.83;;
69369;SDS011;56530;42.640;23.372;2023-06-14T00:20:30;8.70;;;7.90;;
69369;SDS011;56530;42.640;23.372;2023-06-14T00:22:57;12.20;;;7.43;;
69369;SDS011;56530;42.640;23.372;2023-06-14T00:25:23;8.88;;;7.53;;
69369;SDS011;56530;42.640;23.372;2023-06-14T00:27:52;7.55;;;6.85;;
69369;SDS011;56530;42.640;23.372;2023-06-14T00:30:18;10.63;;;6.88;;
69369;SDS011;56530;42.640;23.372;2023-06-14T00:32:44;9.90;;;7.93;;
69369;SDS011;56530;42.640;23.372;2023-06-14T00:35:10;7.53;;;6.85;;
69369;SDS011;56530;42.640;23.372;2023-06-14T00:37:36;8.00;;;6.83;;
69369;SDS011;56530;42.640;23.372;2023-06-14T00:40:02;7.35;;;6.75;;
69369;SDS011;56530;42.640;23.372;2023-06-14T00:42:29;7.47;;;6.88;;
69369;SDS011;56530;42.640;23.372;2023-06-14T00:44:54;8.90;;;6.83;;
69369;SDS011;56530;42.640;23.372;2023-06-14T00:47:20;8.47;;;6.80;;
69369;SDS011;56530;42.640;23.372;2023-06-14T00:49:46;7.40;;;6.40;;
69369;SDS011;56530;42.640;23.372;2023-06-14T00:52:12;6.68;;;6.07;;
69369;SDS011;56530;42.640;23.372;2023-06-14T00:54:40;9.98;;;5.85;;
69369;SDS011;56530;42.640;23.372;2023-06-14T00:57:06;6.43;;;5.73;;
69369;SDS011;56530;42.640;23.372;2023-06-14T00:59:32;6.60;;;6.03;;
69369;SDS011;56530;42.640;23.372;2023-06-14T01:01:58;6.72;;;6.13;;
69369;SDS011;56530;42.640;23.372;2023-06-14T01:04:23;7.22;;;5.82;;
69369;SDS011;56530;42.640;23.372;2023-06-14T01:09:48;7.00;;;6.30;;
69369;SDS011;56530;42.640;23.372;2023-06-14T01:12:47;8.77;;;6.63;;
69369;SDS011;56530;42.640;23.372;2023-06-14T01:15:16;8.98;;;8.07;;
69369;SDS011;56530;42.640;23.372;2023-06-14T01:17:42;9.50;;;8.65;;
69369;SDS011;56530;42.640;23.372;2023-06-14T01:20:11;10.57;;;9.50;;
69369;SDS011;56530;42.640;23.372;2023-06-14T01:22:47;10.50;;;9.45;;
69369;SDS011;56530;42.640;23.372;2023-06-14T01:25:17;12.13;;;9.00;;
69369;SDS011;56530;42.640;23.372;2023-06-14T01:27:46;12.33;;;9.77;;
69369;SDS011;56530;42.640;23.372;2023-06-14T01:30:13;11.82;;;9.40;;
69369;SDS011;56530;42.640;23.372;2023-06-14T01:32:39;10.80;;;9.38;;
69369;SDS011;56530;42.640;23.372;2023-06-14T01:35:05;10.38;;;9.48;;
69369;SDS011;56530;42.640;23.372;2023-06-14T01:37:31;11.90;;;10.20;;
69369;SDS011;56530;42.640;23.372;2023-06-14T01:39:56;10.65;;;9.55;;
69369;SDS011;56530;42.640;23.372;2023-06-14T01:42:22;13.00;;;9.85;;
69369;SDS011;56530;42.640;23.372;2023-06-14T01:44:48;10.43;;;9.43;;
69369;SDS011;56530;42.640;23.372;2023-06-14T01:47:14;10.10;;;9.10;;
69369;SDS011;56530;42.640;23.372;2023-06-14T01:49:40;9.70;;;8.65;;
69369;SDS011;56530;42.640;23.372;2023-06-14T01:52:05;13.00;;;9.32;;
69369;SDS011;56530;42.640;23.372;2023-06-14T01:54:34;10.40;;;9.30;;
69369;SDS011;56530;42.640;23.372;2023-06-14T01:57:02;9.38;;;8.57;;
69369;SDS011;56530;42.640;23.372;2023-06-14T01:59:28;9.60;;;8.60;;
69369;SDS011;56530;42.640;23.372;2023-06-14T02:01:54;8.67;;;7.43;;
69369;SDS011;56530;42.640;23.372;2023-06-14T02:04:19;8.77;;;7.87;;
69369;SDS011;56530;42.640;23.372;2023-06-14T02:06:44;9.33;;;8.17;;
69369;SDS011;56530;42.640;23.372;2023-06-14T02:09:11;10.23;;;8.33;;
69369;SDS011;56530;42.640;23.372;2023-06-14T02:11:36;8.97;;;8.17;;
69369;SDS011;56530;42.640;23.372;2023-06-14T02:14:01;8.77;;;7.90;;
69369;SDS011;56530;42.640;23.372;2023-06-14T02:16:27;8.57;;;7.77;;
69369;SDS011;56530;42.640;23.372;2023-06-14T02:18:54;9.32;;;8.07;;
69369;SDS011;56530;42.640;23.372;2023-06-14T02:21:20;10.05;;;8.15;;
69369;SDS011;56530;42.640;23.372;2023-06-14T02:23:46;8.90;;;7.93;;
69369;SDS011;56530;42.640;23.372;2023-06-14T02:26:12;9.43;;;8.23;;
69369;SDS011;56530;42.640;23.372;2023-06-14T02:28:37;10.10;;;7.37;;
69369;SDS011;56530;42.640;23.372;2023-06-14T02:31:03;8.07;;;7.27;;
69369;SDS011;56530;42.640;23.372;2023-06-14T02:33:28;7.90;;;7.17;;
69369;SDS011;56530;42.640;23.372;2023-06-14T02:35:53;8.00;;;6.93;;
69369;SDS011;56530;42.640;23.372;2023-06-14T02:38:19;7.07;;;6.47;;
69369;SDS011;56530;42.640;23.372;2023-06-14T02:40:44;7.63;;;6.90;;
69369;SDS011;56530;42.640;23.372;2023-06-14T02:43:10;7.73;;;7.00;;
69369;SDS011;56530;42.640;23.372;2023-06-14T02:45:35;7.37;;;6.77;;
69369;SDS011;56530;42.640;23.372;2023-06-14T02:48:00;7.47;;;6.87;;
69369;SDS011;56530;42.640;23.372;2023-06-14T02:50:26;7.47;;;6.77;;
69369;SDS011;56530;42.640;23.372;2023-06-14T02:52:53;8.45;;;6.63;;
69369;SDS011;56530;42.640;23.372;2023-06-14T02:55:20;7.80;;;6.35;;
69369;SDS011;56530;42.640;23.372;2023-06-14T02:57:46;8.13;;;6.10;;
69369;SDS011;56530;42.640;23.372;2023-06-14T03:00:13;6.30;;;5.72;;
69369;SDS011;56530;42.640;23.372;2023-06-14T03:02:39;9.55;;;6.35;;
69369;SDS011;56530;42.640;23.372;2023-06-14T03:05:04;7.37;;;5.67;;
69369;SDS011;56530;42.640;23.372;2023-06-14T03:07:32;6.60;;;5.90;;
69369;SDS011;56530;42.640;23.372;2023-06-14T03:09:57;6.90;;;5.37;;
69369;SDS011;56530;42.640;23.372;2023-06-14T03:12:23;6.43;;;5.57;;
69369;SDS011;56530;42.640;23.372;2023-06-14T03:14:48;5.47;;;4.97;;
69369;SDS011;56530;42.640;23.372;2023-06-14T03:17:15;8.27;;;5.83;;
69369;SDS011;56530;42.640;23.372;2023-06-14T03:19:42;5.88;;;5.30;;
69369;SDS011;56530;42.640;23.372;2023-06-14T03:22:08;6.38;;;5.78;;
69369;SDS011;56530;42.640;23.372;2023-06-14T03:24:33;5.77;;;5.30;;
69369;SDS011;56530;42.640;23.372;2023-06-14T03:27:01;6.13;;;5.53;;
69369;SDS011;56530;42.640;23.372;2023-06-14T03:29:27;13.48;;;10.85;;
69369;SDS011;56530;42.640;23.372;2023-06-14T03:31:56;21.20;;;19.13;;
69369;SDS011;56530;42.640;23.372;2023-06-14T03:34:26;11.13;;;10.02;;
69369;SDS011;56530;42.640;23.372;2023-06-14T03:36:51;6.83;;;6.07;;
69369;SDS011;56530;42.640;23.372;2023-06-14T03:39:17;6.15;;;5.60;;
69369;SDS011;56530;42.640;23.372;2023-06-14T03:41:42;6.82;;;6.18;;
69369;SDS011;56530;42.640;23.372;2023-06-14T03:44:08;8.15;;;5.43;;
69369;SDS011;56530;42.640;23.372;2023-06-14T03:46:33;7.55;;;5.70;;
69369;SDS011;56530;42.640;23.372;2023-06-14T03:48:58;6.30;;;5.65;;
69369;SDS011;56530;42.640;23.372;2023-06-14T03:51:25;6.50;;;5.90;;
69369;SDS011;56530;42.640;23.372;2023-06-14T03:53:51;5.90;;;5.40;;
69369;SDS011;56530;42.640;23.372;2023-06-14T03:56:16;7.93;;;6.57;;
69369;SDS011;56530;42.640;23.372;2023-06-14T03:58:42;10.60;;;6.90;;
69369;SDS011;56530;42.640;23.372;2023-06-14T04:01:07;8.50;;;6.07;;
69369;SDS011;56530;42.640;23.372;2023-06-14T04:03:32;8.70;;;6.33;;
69369;SDS011;56530;42.640;23.372;2023-06-14T04:05:58;6.27;;;5.67;;
69369;SDS011;56530;42.640;23.372;2023-06-14T04:08:24;8.53;;;6.73;;
69369;SDS011;56530;42.640;23.372;2023-06-14T04:10:50;11.25;;;9.63;;
69369;SDS011;56530;42.640;23.372;2023-06-14T04:13:15;9.97;;;8.07;;
69369;SDS011;56530;42.640;23.372;2023-06-14T04:15:42;7.40;;;6.80;;
69369;SDS011;56530;42.640;23.372;2023-06-14T04:18:09;7.63;;;6.00;;
69369;SDS011;56530;42.640;23.372;2023-06-14T04:20:34;7.60;;;5.60;;
69369;SDS011;56530;42.640;23.372;2023-06-14T04:23:11;8.43;;;6.25;;
69369;SDS011;56530;42.640;23.372;2023-06-14T04:25:37;7.47;;;6.25;;
69369;SDS011;56530;42.640;23.372;2023-06-14T04:28:03;8.83;;;6.20;;
69369;SDS011;56530;42.640;23.372;2023-06-14T04:30:28;8.53;;;6.60;;
69369;SDS011;56530;42.640;23.372;2023-06-14T04:32:56;8.32;;;6.60;;
69369;SDS011;56530;42.640;23.372;2023-06-14T04:35:22;7.53;;;6.68;;
69369;SDS011;56530;42.640;23.372;2023-06-14T04:37:49;7.78;;;6.28;;
69369;SDS011;56530;42.640;23.372;2023-06-14T04:40:14;9.03;;;7.63;;
69369;SDS011;56530;42.640;23.372;2023-06-14T04:42:40;9.13;;;7.15;;
69369;SDS011;56530;42.640;23.372;2023-06-14T04:45:09;8.73;;;6.97;;
69369;SDS011;56530;42.640;23.372;2023-06-14T04:47:36;7.97;;;7.18;;
69369;SDS011;56530;42.640;23.372;2023-06-14T04:50:02;9.80;;;7.87;;
69369;SDS011;56530;42.640;23.372;2023-06-14T04:52:28;7.78;;;7.07;;
69369;SDS011;56530;42.640;23.372;2023-06-14T04:54:55;9.50;;;7.55;;
69369;SDS011;56530;42.640;23.372;2023-06-14T04:57:20;8.20;;;7.50;;
69369;SDS011;56530;42.640;23.372;2023-06-14T04:59:47;8.63;;;7.30;;
69369;SDS011;56530;42.640;23.372;2023-06-14T05:02:13;8.35;;;7.20;;
69369;SDS011;56530;42.640;23.372;2023-06-14T05:04:39;11.52;;;8.07;;
69369;SDS011;56530;42.640;23.372;2023-06-14T05:07:08;8.80;;;7.32;;
69369;SDS011;56530;42.640;23.372;2023-06-14T05:09:34;8.38;;;7.47;;
69369;SDS011;56530;42.640;23.372;2023-06-14T05:12:00;11.07;;;9.13;;
69369;SDS011;56530;42.640;23.372;2023-06-14T05:14:26;12.60;;;8.35;;
69369;SDS011;56530;42.640;23.372;2023-06-14T05:16:51;11.30;;;9.20;;
69369;SDS011;56530;42.640;23.372;2023-06-14T05:19:18;13.40;;;9.23;;
69369;SDS011;56530;42.640;23.372;2023-06-14T05:21:43;10.43;;;9.43;;
69369;SDS011;56530;42.640;23.372;2023-06-14T05:24:09;11.45;;;9.82;;
69369;SDS011;56530;42.640;23.372;2023-06-14T05:26:36;11.15;;;9.15;;
69369;SDS011;56530;42.640;23.372;2023-06-14T05:29:01;12.35;;;10.80;;
69369;SDS011;56530;42.640;23.372;2023-06-14T05:31:27;12.50;;;11.33;;
69369;SDS011;56530;42.640;23.372;2023-06-14T05:33:53;12.43;;;11.23;;
69369;SDS011;56530;42.640;23.372;2023-06-14T05:36:22;14.35;;;11.93;;
69369;SDS011;56530;42.640;23.372;2023-06-14T05:38:47;14.13;;;12.50;;
69369;SDS011;56530;42.640;23.372;2023-06-14T05:41:13;13.50;;;12.10;;
69369;SDS011;56530;42.640;23.372;2023-06-14T05:43:38;13.83;;;12.37;;
69369;SDS011;56530;42.640;23.372;2023-06-14T05:46:04;15.93;;;12.63;;
69369;SDS011;56530;42.640;23.372;2023-06-14T05:48:30;14.50;;;12.40;;
69369;SDS011;56530;42.640;23.372;2023-06-14T05:50:55;13.68;;;12.27;;
69369;SDS011;56530;42.640;23.372;2023-06-14T05:53:21;15.73;;;13.13;;
69369;SDS011;56530;42.640;23.372;2023-06-14T05:55:46;15.47;;;12.43;;
69369;SDS011;56530;42.640;23.372;2023-06-14T05:58:11;14.33;;;12.97;;
69369;SDS011;56530;42.640;23.372;2023-06-14T06:00:38;15.35;;;13.82;;
69369;SDS011;56530;42.640;23.372;2023-06-14T06:03:04;16.48;;;12.77;;
69369;SDS011;56530;42.640;23.372;2023-06-14T06:05:30;12.63;;;10.67;;
69369;SDS011;56530;42.640;23.372;2023-06-14T06:07:55;14.30;;;12.63;;
69369;SDS011;56530;42.640;23.372;2023-06-14T06:10:20;14.70;;;11.73;;
69369;SDS011;56530;42.640;23.372;2023-06-14T06:12:46;13.87;;;12.37;;
69369;SDS011;56530;42.640;23.372;2023-06-14T06:15:13;14.80;;;13.30;;
69369;SDS011;56530;42.640;23.372;2023-06-14T06:17:39;15.55;;;13.85;;
69369;SDS011;56530;42.640;23.372;2023-06-14T06:20:05;15.07;;;13.65;;
69369;SDS011;56530;42.640;23.372;2023-06-14T06:22:33;16.30;;;12.95;;
69369;SDS011;56530;42.640;23.372;2023-06-14T06:24:59;13.50;;;11.43;;
69369;SDS011;56530;42.640;23.372;2023-06-14T06:27:24;16.77;;;12.90;;
69369;SDS011;56530;42.640;23.372;2023-06-14T06:29:50;14.65;;;13.10;;
69369;SDS011;56530;42.640;23.372;2023-06-14T06:32:16;15.23;;;12.33;;
69369;SDS011;56530;42.640;23.372;2023-06-14T06:34:42;13.10;;;11.48;;
69369;SDS011;56530;42.640;23.372;2023-06-14T06:37:07;15.15;;;12.75;;
69369;SDS011;56530;42.640;23.372;2023-06-14T06:39:33;15.88;;;14.10;;
69369;SDS011;56530;42.640;23.372;2023-06-14T06:41:58;15.13;;;13.77;;
69369;SDS011;56530;42.640;23.372;2023-06-14T06:44:24;16.92;;;14.48;;
69369;SDS011;56530;42.640;23.372;2023-06-14T06:46:49;16.10;;;14.30;;
69369;SDS011;56530;42.640;23.372;2023-06-14T06:49:15;16.97;;;14.07;;
69369;SDS011;56530;42.640;23.372;2023-06-14T06:51:43;13.90;;;12.53;;
69369;SDS011;56530;42.640;23.372;2023-06-14T06:54:10;15.35;;;13.57;;
69369;SDS011;56530;42.640;23.372;2023-06-14T06:56:35;16.73;;;13.93;;
69369;SDS011;56530;42.640;23.372;2023-06-14T06:59:01;17.30;;;13.00;;
69369;SDS011;56530;42.640;23.372;2023-06-14T07:01:26;15.70;;;11.93;;
69369;SDS011;56530;42.640;23.372;2023-06-14T07:03:54;13.15;;;10.57;;
69369;SDS011;56530;42.640;23.372;2023-06-14T07:06:20;13.95;;;12.55;;
69369;SDS011;56530;42.640;23.372;2023-06-14T07:08:45;15.33;;;12.60;;
69369;SDS011;56530;42.640;23.372;2023-06-14T07:11:13;13.93;;;12.38;;
69369;SDS011;56530;42.640;23.372;2023-06-14T07:13:38;15.47;;;12.17;;
69369;SDS011;56530;42.640;23.372;2023-06-14T07:16:04;16.40;;;13.33;;
69369;SDS011;56530;42.640;23.372;2023-06-14T07:18:29;16.53;;;13.43;;
69369;SDS011;56530;42.640;23.372;2023-06-14T07:20:55;16.27;;;14.40;;
69369;SDS011;56530;42.640;23.372;2023-06-14T07:23:22;11.65;;;10.45;;
69369;SDS011;56530;42.640;23.372;2023-06-14T07:25:48;15.80;;;12.70;;
69369;SDS011;56530;42.640;23.372;2023-06-14T07:28:13;14.93;;;11.80;;
69369;SDS011;56530;42.640;23.372;2023-06-14T07:30:39;14.53;;;13.13;;
69369;SDS011;56530;42.640;23.372;2023-06-14T07:33:04;13.10;;;11.77;;
69369;SDS011;56530;42.640;23.372;2023-06-14T07:35:30;13.82;;;12.48;;
69369;SDS011;56530;42.640;23.372;2023-06-14T07:37:56;14.80;;;11.80;;
69369;SDS011;56530;42.640;23.372;2023-06-14T07:40:21;10.13;;;9.03;;
69369;SDS011;56530;42.640;23.372;2023-06-14T07:42:47;15.00;;;12.35;;
69369;SDS011;56530;42.640;23.372;2023-06-14T07:45:13;14.02;;;12.63;;
69369;SDS011;56530;42.640;23.372;2023-06-14T07:47:39;17.98;;;13.98;;
69369;SDS011;56530;42.640;23.372;2023-06-14T07:50:04;13.47;;;11.00;;
69369;SDS011;56530;42.640;23.372;2023-06-14T07:52:30;17.15;;;13.93;;
69369;SDS011;56530;42.640;23.372;2023-06-14T07:54:56;18.70;;;14.53;;
69369;SDS011;56530;42.640;23.372;2023-06-14T07:57:21;17.83;;;15.03;;
69369;SDS011;56530;42.640;23.372;2023-06-14T07:59:47;13.57;;;11.40;;
69369;SDS011;56530;42.640;23.372;2023-06-14T08:02:12;14.87;;;13.37;;
69369;SDS011;56530;42.640;23.372;2023-06-14T08:04:38;11.30;;;10.27;;
69369;SDS011;56530;42.640;23.372;2023-06-14T08:07:04;14.85;;;12.82;;
69369;SDS011;56530;42.640;23.372;2023-06-14T08:09:29;15.70;;;12.35;;
69369;SDS011;56530;42.640;23.372;2023-06-14T08:11:55;14.07;;;10.83;;
69369;SDS011;56530;42.640;23.372;2023-06-14T08:14:21;13.53;;;11.83;;
69369;SDS011;56530;42.640;23.372;2023-06-14T08:16:47;12.32;;;8.80;;
69369;SDS011;56530;42.640;23.372;2023-06-14T08:19:12;15.30;;;13.03;;
69369;SDS011;56530;42.640;23.372;2023-06-14T08:21:38;10.40;;;9.40;;
69369;SDS011;56530;42.640;23.372;2023-06-14T08:24:03;11.88;;;10.77;;
69369;SDS011;56530;42.640;23.372;2023-06-14T08:26:29;13.95;;;12.15;;
69369;SDS011;56530;42.640;23.372;2023-06-14T08:28:56;13.23;;;11.82;;
69369;SDS011;56530;42.640;23.372;2023-06-14T08:31:22;13.60;;;12.15;;
69369;SDS011;56530;42.640;23.372;2023-06-14T08:33:47;14.88;;;11.80;;
69369;SDS011;56530;42.640;23.372;2023-06-14T08:36:13;16.00;;;11.23;;
69369;SDS011;56530;42.640;23.372;2023-06-14T08:38:39;16.25;;;11.52;;
69369;SDS011;56530;42.640;23.372;2023-06-14T08:41:05;13.32;;;12.00;;
69369;SDS011;56530;42.640;23.372;2023-06-14T08:43:33;13.68;;;11.70;;
69369;SDS011;56530;42.640;23.372;2023-06-14T08:46:00;14.73;;;12.15;;
69369;SDS011;56530;42.640;23.372;2023-06-14T08:48:28;12.73;;;11.50;;
69369;SDS011;56530;42.640;23.372;2023-06-14T08:50:56;15.35;;;11.77;;
69369;SDS011;56530;42.640;23.372;2023-06-14T08:53:26;14.80;;;11.38;;
69369;SDS011;56530;42.640;23.372;2023-06-14T08:55:53;18.27;;;11.23;;
69369;SDS011;56530;42.640;23.372;2023-06-14T08:58:20;13.77;;;12.38;;
69369;SDS011;56530;42.640;23.372;2023-06-14T09:00:49;12.88;;;11.55;;
69369;SDS011;56530;42.640;23.372;2023-06-14T09:03:15;14.57;;;11.80;;
69369;SDS011;56530;42.640;23.372;2023-06-14T09:05:40;13.90;;;12.43;;
69369;SDS011;56530;42.640;23.372;2023-06-14T09:08:06;12.03;;;10.73;;
69369;SDS011;56530;42.640;23.372;2023-06-14T09:10:31;11.67;;;10.50;;
69369;SDS011;56530;42.640;23.372;2023-06-14T09:13:02;11.98;;;10.77;;
69369;SDS011;56530;42.640;23.372;2023-06-14T09:15:28;12.40;;;11.30;;
69369;SDS011;56530;42.640;23.372;2023-06-14T09:17:54;15.80;;;11.27;;
69369;SDS011;56530;42.640;23.372;2023-06-14T09:20:21;12.15;;;10.93;;
69369;SDS011;56530;42.640;23.372;2023-06-14T09:22:46;12.03;;;10.83;;
69369;SDS011;56530;42.640;23.372;2023-06-14T09:25:12;11.57;;;10.37;;
69369;SDS011;56530;42.640;23.372;2023-06-14T09:27:40;12.38;;;10.80;;
69369;SDS011;56530;42.640;23.372;2023-06-14T09:30:08;12.38;;;11.27;;
69369;SDS011;56530;42.640;23.372;2023-06-14T09:32:38;11.50;;;10.38;;
69369;SDS011;56530;42.640;23.372;2023-06-14T09:35:05;12.70;;;11.40;;
69369;SDS011;56530;42.640;23.372;2023-06-14T09:37:32;11.50;;;10.30;;
69369;SDS011;56530;42.640;23.372;2023-06-14T09:39:58;13.20;;;10.38;;
69369;SDS011;56530;42.640;23.372;2023-06-14T09:42:24;11.00;;;9.90;;
69369;SDS011;56530;42.640;23.372;2023-06-14T09:44:53;13.60;;;9.87;;
69369;SDS011;56530;42.640;23.372;2023-06-14T09:47:21;11.57;;;10.40;;
69369;SDS011;56530;42.640;23.372;2023-06-14T09:49:48;11.13;;;10.02;;
69369;SDS011;56530;42.640;23.372;2023-06-14T09:52:14;12.50;;;11.10;;
69369;SDS011;56530;42.640;23.372;2023-06-14T09:54:41;13.70;;;12.25;;
69369;SDS011;56530;42.640;23.372;2023-06-14T09:57:11;12.98;;;11.57;;
69369;SDS011;56530;42.640;23.372;2023-06-14T09:59:37;15.18;;;12.15;;
69369;SDS011;56530;42.640;23.372;2023-06-14T10:02:07;13.50;;;12.03;;
69369;SDS011;56530;42.640;23.372;2023-06-14T10:04:56;12.70;;;11.40;;
69369;SDS011;56530;42.640;23.372;2023-06-14T10:07:30;13.67;;;11.47;;
69369;SDS011;56530;42.640;23.372;2023-06-14T10:10:01;12.88;;;11.68;;
69369;SDS011;56530;42.640;23.372;2023-06-14T10:12:26;12.35;;;11.13;;
69369;SDS011;56530;42.640;23.372;2023-06-14T10:14:52;12.63;;;10.60;;
69369;SDS011;56530;42.640;23.372;2023-06-14T10:17:42;13.63;;;10.95;;
69369;SDS011;56530;42.640;23.372;2023-06-14T10:22:42;13.52;;;11.95;;
69369;SDS011;56530;42.640;23.372;2023-06-14T10:25:28;14.43;;;11.02;;
69369;SDS011;56530;42.640;23.372;2023-06-14T10:28:14;12.57;;;10.93;;
69369;SDS011;56530;42.640;23.372;2023-06-14T10:33:55;12.82;;;11.48;;
69369;SDS011;56530;42.640;23.372;2023-06-14T10:38:56;12.93;;;11.07;;
69369;SDS011;56530;42.640;23.372;2023-06-14T10:41:39;12.48;;;10.85;;
69369;SDS011;56530;42.640;23.372;2023-06-14T10:46:40;11.20;;;10.30;;
69369;SDS011;56530;42.640;23.372;2023-06-14T10:49:11;11.98;;;10.88;;
69369;SDS011;56530;42.640;23.372;2023-06-14T10:51:41;11.43;;;10.33;;
69369;SDS011;56530;42.640;23.372;2023-06-14T10:54:11;13.05;;;10.80;;
69369;SDS011;56530;42.640;23.372;2023-06-14T10:56:37;10.75;;;9.60;;
69369;SDS011;56530;42.640;23.372;2023-06-14T10:59:02;10.25;;;9.20;;
69369;SDS011;56530;42.640;23.372;2023-06-14T11:01:38;11.32;;;10.23;;
69369;SDS011;56530;42.640;23.372;2023-06-14T11:04:09;11.23;;;10.23;;
69369;SDS011;56530;42.640;23.372;2023-06-14T11:06:48;10.55;;;9.60;;
69369;SDS011;56530;42.640;23.372;2023-06-14T11:09:41;9.55;;;8.70;;
69369;SDS011;56530;42.640;23.372;2023-06-14T11:12:36;9.48;;;8.52;;
69369;SDS011;56530;42.640;23.372;2023-06-14T11:15:02;10.47;;;9.37;;
69369;SDS011;56530;42.640;23.372;2023-06-14T11:17:28;9.90;;;9.00;;
69369;SDS011;56530;42.640;23.372;2023-06-14T11:20:08;10.90;;;9.25;;
69369;SDS011;56530;42.640;23.372;2023-06-14T11:22:43;10.15;;;9.18;;
69369;SDS011;56530;42.640;23.372;2023-06-14T11:25:09;9.77;;;8.88;;
69369;SDS011;56530;42.640;23.372;2023-06-14T11:27:35;9.40;;;8.50;;
69369;SDS011;56530;42.640;23.372;2023-06-14T11:30:00;9.20;;;8.30;;
69369;SDS011;56530;42.640;23.372;2023-06-14T11:32:26;8.63;;;7.77;;
69369;SDS011;56530;42.640;23.372;2023-06-14T11:34:51;8.73;;;7.83;;
69369;SDS011;56530;42.640;23.372;2023-06-14T11:37:17;8.07;;;7.47;;
69369;SDS011;56530;42.640;23.372;2023-06-14T11:39:45;8.13;;;7.43;;
69369;SDS011;56530;42.640;23.372;2023-06-14T11:42:15;7.95;;;7.20;;
69369;SDS011;56530;42.640;23.372;2023-06-14T11:44:40;8.55;;;6.90;;
69369;SDS011;56530;42.640;23.372;2023-06-14T11:47:06;7.93;;;7.23;;
69369;SDS011;56530;42.640;23.372;2023-06-14T11:49:35;7.17;;;6.47;;
69369;SDS011;56530;42.640;23.372;2023-06-14T11:52:04;8.10;;;7.27;;
69369;SDS011;56530;42.640;23.372;2023-06-14T11:54:31;7.70;;;7.03;;
69369;SDS011;56530;42.640;23.372;2023-06-14T11:56:57;8.07;;;7.38;;
69369;SDS011;56530;42.640;23.372;2023-06-14T11:59:23;7.63;;;7.00;;
69369;SDS011;56530;42.640;23.372;2023-06-14T12:01:49;8.57;;;7.82;;
69369;SDS011;56530;42.640;23.372;2023-06-14T12:04:22;7.90;;;7.20;;
69369;SDS011;56530;42.640;23.372;2023-06-14T12:06:49;8.00;;;7.10;;
69369;SDS011;56530;42.640;23.372;2023-06-14T12:09:14;7.95;;;7.28;;
69369;SDS011;56530;42.640;23.372;2023-06-14T12:11:43;9.07;;;6.80;;
69369;SDS011;56530;42.640;23.372;2023-06-14T12:14:09;7.50;;;6.83;;
69369;SDS011;56530;42.640;23.372;2023-06-14T12:16:38;8.60;;;7.13;;
69369;SDS011;56530;42.640;23.372;2023-06-14T12:19:14;7.90;;;6.97;;
69369;SDS011;56530;42.640;23.372;2023-06-14T12:21:40;7.40;;;6.77;;
69369;SDS011;56530;42.640;23.372;2023-06-14T12:24:07;6.97;;;6.38;;
69369;SDS011;56530;42.640;23.372;2023-06-14T12:26:32;7.03;;;6.50;;
69369;SDS011;56530;42.640;23.372;2023-06-14T12:28:58;7.53;;;6.63;;
69369;SDS011;56530;42.640;23.372;2023-06-14T12:31:24;7.65;;;6.95;;
69369;SDS011;56530;42.640;23.372;2023-06-14T12:33:50;7.55;;;6.85;;
69369;SDS011;56530;42.640;23.372;2023-06-14T12:36:16;7.28;;;6.57;;
69369;SDS011;56530;42.640;23.372;2023-06-14T12:38:44;6.70;;;6.10;;
69369;SDS011;56530;42.640;23.372;2023-06-14T12:41:11;6.63;;;6.13;;
69369;SDS011;56530;42.640;23.372;2023-06-14T12:43:36;6.57;;;6.07;;
69369;SDS011;56530;42.640;23.372;2023-06-14T12:46:02;7.77;;;6.97;;
69369;SDS011;56530;42.640;23.372;2023-06-14T12:48:27;6.87;;;6.27;;
69369;SDS011;56530;42.640;23.372;2023-06-14T12:50:54;6.95;;;6.32;;
69369;SDS011;56530;42.640;23.372;2023-06-14T12:53:20;6.40;;;5.80;;
69369;SDS011;56530;42.640;23.372;2023-06-14T12:55:46;6.03;;;5.53;;
69369;SDS011;56530;42.640;23.372;2023-06-14T12:58:11;6.90;;;6.07;;
69369;SDS011;56530;42.640;23.372;2023-06-14T13:00:38;8.02;;;6.47;;
69369;SDS011;56530;42.640;23.372;2023-06-14T13:03:04;8.67;;;6.67;;
69369;SDS011;56530;42.640;23.372;2023-06-14T13:05:30;6.93;;;6.27;;
69369;SDS011;56530;42.640;23.372;2023-06-14T13:07:58;7.32;;;6.63;;
69369;SDS011;56530;42.640;23.372;2023-06-14T13:10:24;8.53;;;7.63;;
69369;SDS011;56530;42.640;23.372;2023-06-14T13:12:50;7.82;;;7.13;;
69369;SDS011;56530;42.640;23.372;2023-06-14T13:15:16;9.20;;;7.68;;
69369;SDS011;56530;42.640;23.372;2023-06-14T13:17:41;8.87;;;7.53;;
69369;SDS011;56530;42.640;23.372;2023-06-14T13:20:08;7.43;;;6.77;;
69369;SDS011;56530;42.640;23.372;2023-06-14T13:22:34;8.13;;;6.97;;
69369;SDS011;56530;42.640;23.372;2023-06-14T13:25:00;7.77;;;6.73;;
69369;SDS011;56530;42.640;23.372;2023-06-14T13:27:26;6.05;;;5.45;;
69369;SDS011;56530;42.640;23.372;2023-06-14T13:29:52;7.30;;;6.60;;
69369;SDS011;56530;42.640;23.372;2023-06-14T13:32:17;7.43;;;6.77;;
69369;SDS011;56530;42.640;23.372;2023-06-14T13:34:43;8.20;;;7.40;;
69369;SDS011;56530;42.640;23.372;2023-06-14T13:37:08;8.37;;;7.57;;
69369;SDS011;56530;42.640;23.372;2023-06-14T13:39:33;8.63;;;7.83;;
69369;SDS011;56530;42.640;23.372;2023-06-14T13:42:02;8.85;;;7.72;;
69369;SDS011;56530;42.640;23.372;2023-06-14T13:44:27;8.47;;;7.60;;
69369;SDS011;56530;42.640;23.372;2023-06-14T13:46:53;8.50;;;7.70;;
69369;SDS011;56530;42.640;23.372;2023-06-14T13:49:18;10.80;;;7.33;;
69369;SDS011;56530;42.640;23.372;2023-06-14T13:51:44;8.17;;;7.33;;
69369;SDS011;56530;42.640;23.372;2023-06-14T13:54:11;10.63;;;7.83;;
69369;SDS011;56530;42.640;23.372;2023-06-14T13:56:37;8.73;;;7.85;;
69369;SDS011;56530;42.640;23.372;2023-06-14T13:59:03;7.27;;;6.57;;
69369;SDS011;56530;42.640;23.372;2023-06-14T14:01:28;7.10;;;6.50;;
69369;SDS011;56530;42.640;23.372;2023-06-14T14:03:54;6.93;;;6.20;;
69369;SDS011;56530;42.640;23.372;2023-06-14T14:06:19;7.20;;;6.60;;
69369;SDS011;56530;42.640;23.372;2023-06-14T14:08:45;7.85;;;7.15;;
69369;SDS011;56530;42.640;23.372;2023-06-14T14:11:10;7.10;;;6.50;;
69369;SDS011;56530;42.640;23.372;2023-06-14T14:13:36;8.87;;;6.53;;
69369;SDS011;56530;42.640;23.372;2023-06-14T14:16:02;8.87;;;6.77;;
69369;SDS011;56530;42.640;23.372;2023-06-14T14:18:28;7.82;;;6.90;;
69369;SDS011;56530;42.640;23.372;2023-06-14T14:20:53;6.83;;;5.77;;
69369;SDS011;56530;42.640;23.372;2023-06-14T14:23:19;6.57;;;5.97;;
69369;SDS011;56530;42.640;23.372;2023-06-14T14:25:45;6.10;;;5.50;;
69369;SDS011;56530;42.640;23.372;2023-06-14T14:28:11;8.20;;;6.03;;
69369;SDS011;56530;42.640;23.372;2023-06-14T14:30:37;7.38;;;6.20;;
69369;SDS011;56530;42.640;23.372;2023-06-14T14:33:04;6.57;;;5.97;;
69369;SDS011;56530;42.640;23.372;2023-06-14T14:35:30;7.23;;;6.10;;